Terminal Aerodrome Forecast
Issued by NWS Binghamton, NY

Home | Current Version | Previous Version | Text Only | Print | Product List | Glossary On
Versions: 1 2 3 4 5 6 7 8 9 10 11 12 13 14 15 16 17 18 19 20
000
FTUS41 KBGM 242300
TAFBGM
TAF
KBGM 242321Z 2500/2524 34008KT P6SM SKC
     FM250400 04004KT P6SM BKN250
     FM251200 12010KT P6SM BKN100
     FM252300 16015KT P6SM OVC045 PROB30 2523/2524 -SHRA=

USA.gov is the U.S. government's official web portal to all federal, state and local government web resources and services.